Bankersmith, Texas
Current Conditions -  °F | °C
As of 3:55 PM on Tuesday 25 Nov 2014 (Local Time) from KT82 Reporting Station
Clear Clear  
Wind Chill: 16°   Ceiling: Unl
Heat Index: 16°   Visibility: 10mi
Dew Point: -6°   Wind: 8mph
Humidity: 20%   Direction: 260°W
Pressure: 30.21"   Gusts: NA
Location:  30.3069°N, 98.8978°W
Report Text: KT82 252155Z AUTO 26007KT 10SM CLR 17/M06 A3021 RMK AO2 T01651064
Loading
Personal Weather Stations






























Interactive Weather Map New forecast layout! Learn more

10-Day Weather Forecast

Advertisements
Track Severe Weather on mobile